Details for UPS at CYHM




Go Back


Latest METAR
Local Time

CYHM 241330Z 30002KT 15SM FEW017 SCT022 BKN110 02/00 A3023 RMK CU1SC3AC4 CU TR SLP247

24/02/2018, 08:48:25

Description
Results
UPS Logo
Number of Pilots based at CYHM
0 Pilots Based here
Number of UPS Flights Departed from CYHM
0 Flights Departed
Number of UPS Flights Arrived at CYHM
0 Flights Arrived
Number of UPS Schedules Departing from CYHM
4 Schedules
Number of UPS Schedules Arriving at CYHM
7 Schedules
Number of UPS Schedules Departing from CYHM availible today
1 Schedules Today
Number of UPS Schedules Arriving at CYHM availible today
0 Schedules Today
Average Landing Rate at CYHM
0 fpm
UPS Average Landing Rate at CYHM
0 fpm
Total Fuel Purchased at CYHM by UPS
0.00 kgs / 0.00 lbs

Pilots Based at CYHM


Pilot ID
Pilot Name
Pilot Rank
No. of Flights
No. of Flying Hours
There are no pilots assigned to this hub!   Will you be the first?
Content